Time;durP1;ratioP1;P1;durP2;ratioP2;P2;SDS_P1;SDS_P2;PMS_P1;PMS_P2;Temp;Humidity;BMP_temperature;BMP_pressure;BME280_temperature;BME280_humidity;BME280_pressure;Samples;Min_cycle;Max_cycle;Signal;HPM_P1;HPM_P2
2023/09/25 00:04:33;;;;;;;1999.90;999.90;;;;;;;11.90;100.00;102104.25;10399158;28;20513;-64
2023/09/25 00:09:36;;;;;;;1999.90;999.90;;;;;;;11.89;100.00;102102.56;10399811;28;20046;-64
2023/09/25 00:14:38;;;;;;;1999.90;999.90;;;;;;;11.77;100.00;102103.94;10416988;28;20046;-64
2023/09/25 00:19:42;;;;;;;1999.90;999.90;;;;;;;11.89;100.00;102102.56;10399346;28;20042;-64
2023/09/25 00:24:44;;;;;;;1999.90;999.90;;;;;;;11.79;100.00;102106.50;10416659;28;20124;-64
2023/09/25 00:29:46;;;;;;;1999.90;999.90;;;;;;;11.74;100.00;102100.59;10415798;28;20077;-64
2023/09/25 00:34:49;;;;;;;1999.90;999.90;;;;;;;11.86;100.00;102100.91;10416324;28;20051;-64
2023/09/25 00:39:52;;;;;;;1999.90;999.90;;;;;;;11.89;100.00;102106.03;10415844;28;20060;-64
2023/09/25 00:44:54;;;;;;;1999.90;999.90;;;;;;;11.85;100.00;102108.84;10415434;28;20085;-64
2023/09/25 00:49:56;;;;;;;1999.90;999.90;;;;;;;11.82;100.00;102106.38;10397643;28;20475;-64
2023/09/25 00:55:00;;;;;;;1999.90;999.90;;;;;;;11.69;100.00;102101.63;10415157;28;20053;-64
2023/09/25 01:00:04;;;;;;;1999.90;999.90;;;;;;;11.57;100.00;102094.28;10397670;28;20510;-64
2023/09/25 01:05:10;;;;;;;1999.90;999.90;;;;;;;11.68;100.00;102094.69;10397392;28;20486;-64
2023/09/25 01:10:17;;;;;;;1999.90;999.90;;;;;;;11.56;100.00;102097.78;10415409;28;20081;-63
2023/09/25 01:15:20;;;;;;;1999.90;999.90;;;;;;;11.61;100.00;102095.00;10400536;28;20103;-63
2023/09/25 01:20:23;;;;;;;1999.90;999.90;;;;;;;11.61;100.00;102105.47;10406348;28;20049;-64
2023/09/25 01:25:26;;;;;;;1999.90;999.90;;;;;;;11.57;100.00;102098.66;10423018;28;20081;-64
2023/09/25 01:30:28;;;;;;;1999.90;999.90;;;;;;;11.61;100.00;102097.63;10405822;28;20125;-64
2023/09/25 01:35:31;;;;;;;1999.90;999.90;;;;;;;11.61;100.00;102095.84;10405655;28;20053;-64
2023/09/25 01:40:33;;;;;;;1999.90;999.90;;;;;;;11.63;100.00;102094.03;10422858;28;20133;-64
2023/09/25 01:45:36;;;;;;;1999.90;999.90;;;;;;;11.49;100.00;102083.22;10404786;28;20100;-64
2023/09/25 01:50:38;;;;;;;1999.90;999.90;;;;;;;11.45;100.00;102079.88;10422779;28;20046;-65
2023/09/25 01:55:42;;;;;;;1999.90;999.90;;;;;;;11.67;100.00;102092.13;10421866;28;20402;-64
2023/09/25 02:00:44;;;;;;;1999.90;999.90;;;;;;;11.65;100.00;102086.06;10422865;28;20077;-65
2023/09/25 02:05:46;;;;;;;1999.90;999.90;;;;;;;11.53;100.00;102085.69;10421476;28;20384;-65
2023/09/25 02:10:49;;;;;;;1999.90;999.90;;;;;;;11.45;100.00;102079.88;10421773;28;20418;-65
2023/09/25 02:15:51;;;;;;;1999.90;999.90;;;;;;;11.42;100.00;102079.16;10421744;28;20126;-65
2023/09/25 02:20:54;;;;;;;1999.90;999.90;;;;;;;11.48;100.00;102076.28;10420898;28;20426;-65
2023/09/25 02:25:57;;;;;;;1999.90;999.90;;;;;;;11.46;100.00;102076.31;10420029;28;20072;-65
2023/09/25 02:30:59;;;;;;;1999.90;999.90;;;;;;;11.49;100.00;102070.13;10403003;28;20489;-65
2023/09/25 02:36:10;;;;;;;1999.90;999.90;;;;;;;11.49;100.00;102072.75;10420952;28;20054;-65
2023/09/25 02:41:13;;;;;;;1999.90;999.90;;;;;;;11.49;100.00;102075.38;10403353;28;20061;-64
2023/09/25 02:46:15;;;;;;;1999.90;999.90;;;;;;;11.46;100.00;102063.22;10420426;28;20053;-65
2023/09/25 02:51:18;;;;;;;1999.90;999.90;;;;;;;11.52;100.00;102078.72;10419872;28;20491;-65
2023/09/25 02:56:20;;;;;;;1999.90;999.90;;;;;;;11.40;100.00;102073.09;10419500;28;20053;-64
2023/09/25 03:01:22;;;;;;;1999.90;999.90;;;;;;;11.32;100.00;102070.81;10419350;28;20561;-65
2023/09/25 03:06:25;;;;;;;1999.90;999.90;;;;;;;11.37;100.00;102074.09;10419839;28;20100;-65
2023/09/25 03:11:27;;;;;;;1999.90;999.90;;;;;;;11.44;100.00;102069.47;10419648;28;20053;-65
2023/09/25 03:16:30;;;;;;;1999.90;999.90;;;;;;;11.43;100.00;102079.09;10418760;28;20049;-65
2023/09/25 03:21:33;;;;;;;1999.90;999.90;;;;;;;11.42;100.00;102073.91;10419233;28;20065;-64
2023/09/25 03:26:36;;;;;;;1999.90;999.90;;;;;;;11.46;100.00;102070.25;10418920;28;20088;-65
2023/09/25 03:31:38;;;;;;;1999.90;999.90;;;;;;;11.42;100.00;102080.00;10401318;28;20053;-65
2023/09/25 03:36:40;;;;;;;1999.90;999.90;;;;;;;11.39;100.00;102071.41;10418369;28;20049;-65
2023/09/25 03:41:44;;;;;;;1999.90;999.90;;;;;;;11.49;100.00;102062.25;10417892;28;20136;-65
2023/09/25 03:46:46;;;;;;;1999.90;999.90;;;;;;;11.32;100.00;102069.03;10417934;28;20376;-64
2023/09/25 03:51:48;;;;;;;1999.90;999.90;;;;;;;11.41;100.00;102073.03;10418465;28;20045;-65
2023/09/25 03:56:51;;;;;;;1999.90;999.90;;;;;;;11.33;100.00;102073.38;10417759;28;20049;-65
2023/09/25 04:01:53;;;;;;;1999.90;999.90;;;;;;;11.44;100.00;102085.19;10416983;28;20540;-64
2023/09/25 04:06:55;;;;;;;1999.90;999.90;;;;;;;11.50;100.00;102085.78;10416689;28;20401;-65
2023/09/25 04:11:59;;;;;;;1999.90;999.90;;;;;;;11.60;100.00;102083.66;10417221;28;20130;-65
2023/09/25 04:17:01;;;;;;;1999.90;999.90;;;;;;;11.48;100.00;102076.28;10399814;28;20125;-65
2023/09/25 04:22:06;;;;;;;1999.90;999.90;;;;;;;11.45;100.00;102087.75;10399406;28;20058;-65
2023/09/25 04:27:09;;;;;;;1999.90;999.90;;;;;;;11.55;100.00;102077.75;10416625;28;20081;-65
2023/09/25 04:32:14;;;;;;;1999.90;999.90;;;;;;;11.44;100.00;102085.19;10416411;28;20449;-65
2023/09/25 04:37:16;;;;;;;1999.90;999.90;;;;;;;11.49;100.00;102080.59;10399083;28;20052;-65
2023/09/25 04:42:19;;;;;;;1999.90;999.90;;;;;;;11.46;100.00;102089.44;10415401;28;20096;-65
2023/09/25 04:47:21;;;;;;;1999.90;999.90;;;;;;;11.52;100.00;102086.59;10415971;28;20049;-65
2023/09/25 04:52:24;;;;;;;1999.90;999.90;;;;;;;11.45;100.00;102087.75;10415150;28;20087;-65
2023/09/25 04:57:26;;;;;;;1999.90;999.90;;;;;;;11.40;100.00;102088.84;10415139;28;20556;-65
2023/09/25 05:02:29;;;;;;;1999.90;999.90;;;;;;;11.43;100.00;102083.47;10415731;28;20092;-65
2023/09/25 05:07:31;;;;;;;1999.90;999.90;;;;;;;11.43;100.00;102081.72;10398722;28;20041;-65
2023/09/25 05:12:33;;;;;;;1999.90;999.90;;;;;;;11.36;100.00;102084.63;10414795;28;20422;-65
2023/09/25 05:17:36;;;;;;;1999.90;999.90;;;;;;;11.43;100.00;102086.97;10415264;28;20045;-65
2023/09/25 05:22:40;;;;;;;1999.90;999.90;;;;;;;11.48;100.00;102090.25;10415805;28;20045;-65
2023/09/25 05:27:47;;;;;;;1999.90;999.90;;;;;;;11.40;100.00;102087.09;10397023;28;20046;-64
2023/09/25 05:32:51;;;;;;;1999.90;999.90;;;;;;;11.36;100.00;102092.50;10381237;28;20053;-64
2023/09/25 05:37:54;;;;;;;1999.90;999.90;;;;;;;11.37;100.00;102095.06;10381376;28;20545;-64
2023/09/25 05:42:56;;;;;;;1999.90;999.90;;;;;;;11.31;100.00;102101.44;10396807;28;20570;-64
2023/09/25 05:47:59;;;;;;;1999.90;999.90;;;;;;;11.33;100.00;102090.84;10414580;28;20379;-65
2023/09/25 05:53:03;;;;;;;1999.90;999.90;;;;;;;11.52;100.00;102098.84;10415223;28;20124;-65
2023/09/25 05:58:05;;;;;;;1999.90;999.90;;;;;;;11.39;100.00;102098.47;10381044;28;20041;-64
2023/09/25 06:03:08;;;;;;;1999.90;999.90;;;;;;;11.47;100.00;102106.06;10419600;28;20050;-64
2023/09/25 06:08:10;;;;;;;1999.90;999.90;;;;;;;11.52;100.00;102114.59;10421146;28;20107;-65
2023/09/25 06:13:12;;;;;;;1999.90;999.90;;;;;;;11.68;100.00;102125.28;10404384;28;20049;-64
2023/09/25 06:18:15;;;;;;;1999.90;999.90;;;;;;;11.61;100.00;102118.59;10388119;28;20049;-64
2023/09/25 06:23:17;;;;;;;1999.90;999.90;;;;;;;11.65;100.00;102120.16;10421385;28;20053;-64
2023/09/25 06:28:23;;;;;;;1999.90;999.90;;;;;;;11.83;100.00;102129.06;10421116;28;20129;-64
2023/09/25 06:33:28;;;;;;;1999.90;999.90;;;;;;;11.80;100.00;102142.31;10403611;28;20049;-64
2023/09/25 06:38:31;;;;;;;1999.90;999.90;;;;;;;11.96;100.00;102129.44;10403005;28;20474;-65
2023/09/25 06:43:34;;;;;;;1999.90;999.90;;;;;;;11.95;100.00;102131.19;10402656;28;20506;-65
2023/09/25 06:48:36;;;;;;;1999.90;999.90;;;;;;;12.19;100.00;102124.06;10386676;28;20084;-65
2023/09/25 06:53:39;;;;;;;1999.90;999.90;;;;;;;12.34;100.00;102119.06;10419670;28;20473;-65
2023/09/25 06:58:42;;;;;;;1999.90;999.90;;;;;;;12.61;100.00;102127.50;10420505;28;20124;-65
2023/09/25 07:03:45;;;;;;;1999.90;999.90;;;;;;;12.86;95.20;102121.13;10419883;28;20049;-65
2023/09/25 07:08:48;;;;;;;1999.90;999.90;;;;;;;13.29;94.41;102114.72;10385326;28;20486;-66
2023/09/25 07:13:51;;;;;;;1999.90;999.90;;;;;;;13.50;95.01;102117.25;10418643;28;20057;-65
2023/09/25 07:18:53;;;;;;;1999.90;999.90;;;;;;;13.53;93.02;102117.13;10418639;28;20045;-65
2023/09/25 07:23:56;;;;;;;1999.90;999.90;;;;;;;13.82;91.91;102118.31;10418426;28;20406;-65
2023/09/25 07:28:58;;;;;;;1999.90;999.90;;;;;;;14.19;89.35;102124.34;10401291;28;20115;-65
2023/09/25 07:34:01;;;;;;;1999.90;999.90;;;;;;;14.12;86.08;102121.19;10418027;28;20045;-65
2023/09/25 07:39:04;;;;;;;1999.90;999.90;;;;;;;14.60;85.55;102121.34;10400729;28;20053;-65
2023/09/25 07:44:11;;;;;;;1999.90;999.90;;;;;;;15.36;82.79;102112.78;10417551;28;20061;-65
2023/09/25 07:49:14;;;;;;;1999.90;999.90;;;;;;;15.82;82.07;102111.97;10418008;28;20057;-65
2023/09/25 07:54:17;;;;;;;1999.90;999.90;;;;;;;15.69;80.22;102106.50;10424374;22;20497;-70
2023/09/25 07:59:25;;;;;;;1999.90;999.90;;;;;;;16.27;79.64;102111.94;10417057;28;20125;-69
2023/09/25 08:04:27;;;;;;;1999.90;999.90;;;;;;;15.83;76.19;102121.56;10400894;28;20053;-71
2023/09/25 08:09:35;;;;;;;1999.90;999.90;;;;;;;16.55;77.32;102113.75;10416632;28;20111;-70
2023/09/25 08:14:37;;;;;;;1999.90;999.90;;;;;;;16.21;75.98;102117.63;10417073;28;20065;-70
2023/09/25 08:19:40;;;;;;;1999.90;999.90;;;;;;;17.01;77.32;102115.31;10416317;28;20077;-69
2023/09/25 08:24:42;;;;;;;1999.90;999.90;;;;;;;17.03;73.92;102116.94;10416720;28;20063;-70
2023/09/25 08:29:45;;;;;;;1999.90;999.90;;;;;;;18.08;75.67;102128.63;10416498;28;20049;-69
2023/09/25 08:34:48;;;;;;;1999.90;999.90;;;;;;;17.25;73.29;102107.63;10416441;28;20111;-70
2023/09/25 08:39:53;;;;;;;1999.90;999.90;;;;;;;17.30;72.28;102109.94;10416222;28;20053;-70
2023/09/25 08:44:59;;;;;;;1999.90;999.90;;;;;;;17.65;72.85;102102.31;10398478;28;20122;-70
2023/09/25 08:50:02;;;;;;;1999.90;999.90;;;;;;;18.09;68.48;102105.59;10398504;28;20049;-70
2023/09/25 08:55:08;;;;;;;1999.90;999.90;;;;;;;17.63;69.87;102104.25;10415492;28;20064;-70
2023/09/25 09:00:11;;;;;;;1999.90;999.90;;;;;;;18.52;69.49;102100.81;10415738;28;20042;-70
2023/09/25 09:05:14;;;;;;;1999.90;999.90;;;;;;;19.95;68.96;102104.63;10415680;28;20053;-70
2023/09/25 09:10:17;;;;;;;1999.90;999.90;;;;;;;19.17;65.98;102088.25;10414851;28;20410;-70
2023/09/25 09:15:29;;;;;;;1999.90;999.90;;;;;;;18.89;64.08;102098.22;10415399;28;20060;-73
2023/09/25 09:20:36;;;;;;;1999.90;999.90;;;;;;;18.75;65.76;102090.41;10398123;28;20077;-70
2023/09/25 09:25:39;;;;;;;1999.90;999.90;;;;;;;20.17;64.77;102083.41;10415211;28;20123;-70
2023/09/25 09:30:42;;;;;;;1999.90;999.90;;;;;;;20.06;62.29;102078.06;10414381;28;20573;-70
2023/09/25 09:35:44;;;;;;;1999.90;999.90;;;;;;;20.09;61.16;102080.50;10415854;28;20046;-70
2023/09/25 09:40:46;;;;;;;1999.90;999.90;;;;;;;19.37;62.26;102076.16;10422876;28;20051;-70
2023/09/25 09:45:50;;;;;;;1999.90;999.90;;;;;;;21.03;60.26;102081.06;10404713;28;20493;-71
2023/09/25 09:50:56;;;;;;;1999.90;999.90;;;;;;;20.87;62.76;102088.59;10404726;28;20444;-71
2023/09/25 09:55:59;;;;;;;1999.90;999.90;;;;;;;21.79;61.68;102083.66;10388165;28;20057;-71
2023/09/25 10:01:02;;;;;;;1999.90;999.90;;;;;;;20.78;59.49;102092.84;10422326;28;20050;-72
2023/09/25 10:06:05;;;;;;;1999.90;999.90;;;;;;;21.85;57.09;102088.44;10388567;28;20045;-71
2023/09/25 10:11:15;;;;;;;1999.90;999.90;;;;;;;21.61;57.70;102096.72;10404368;28;20091;-71
2023/09/25 10:16:18;;;;;;;1999.90;999.90;;;;;;;22.71;59.87;102095.34;10404830;28;20049;-71
2023/09/25 10:21:21;;;;;;;1999.90;999.90;;;;;;;21.97;56.98;102096.38;10404108;28;20056;-71
2023/09/25 10:26:25;;;;;;;1999.90;999.90;;;;;;;22.31;59.22;102093.50;10403988;28;20057;-71
2023/09/25 10:31:31;;;;;;;1999.90;999.90;;;;;;;21.99;60.52;102084.63;10402846;28;20568;-71
2023/09/25 10:36:44;;;;;;;1999.90;999.90;;;;;;;23.32;58.74;102076.47;10404654;28;20077;-71
2023/09/25 10:42:07;;;;;;;1999.90;999.90;;;;;;;22.89;55.54;102077.66;10403385;28;20076;-71
2023/09/25 10:47:12;;;;;;;1999.90;999.90;;;;;;;21.66;56.75;102075.00;10418804;28;20079;-73
2023/09/25 10:52:16;;;;;;;1999.90;999.90;;;;;;;21.84;59.31;102075.28;10420329;28;20056;-71
2023/09/25 10:57:19;;;;;;;1999.90;999.90;;;;;;;23.09;58.21;102080.41;10419275;28;20456;-71
2023/09/25 11:02:21;;;;;;;1999.90;999.90;;;;;;;23.77;55.46;102067.03;10386424;28;20048;-71
2023/09/25 11:07:26;;;;;;;1999.90;999.90;;;;;;;23.64;52.44;102064.63;10419700;28;20050;-72
2023/09/25 11:12:29;;;;;;;1999.90;999.90;;;;;;;22.75;53.28;102056.72;10402410;28;20056;-72
2023/09/25 11:17:31;;;;;;;1999.90;999.90;;;;;;;24.40;54.26;102061.03;10386201;28;20107;-71
2023/09/25 11:22:41;;;;;;;1999.90;999.90;;;;;;;24.77;53.78;102065.50;10384881;28;20581;-71
2023/09/25 11:27:54;;;;;;;1999.90;999.90;;;;;;;24.76;52.04;102073.69;10401925;28;20049;-71
2023/09/25 11:32:56;;;;;;;1999.90;999.90;;;;;;;25.72;53.75;102073.94;10400663;28;20061;-71
2023/09/25 11:38:00;;;;;;;1999.90;999.90;;;;;;;25.24;51.08;102074.34;10418642;28;20045;-71
2023/09/25 11:43:03;;;;;;;1999.90;999.90;;;;;;;24.78;52.53;102088.63;10400494;28;20120;-72
2023/09/25 11:48:05;;;;;;;1999.90;999.90;;;;;;;26.48;48.50;102079.56;10400489;28;20197;-72
2023/09/25 11:53:08;;;;;;;1999.90;999.90;;;;;;;25.91;50.75;102080.09;10418075;28;20052;-72
2023/09/25 11:58:10;;;;;;;1999.90;999.90;;;;;;;26.36;49.26;102083.50;10416980;28;20057;-72
2023/09/25 12:03:13;;;;;;;1999.90;999.90;;;;;;;26.44;48.37;102079.00;10384125;28;20049;-72
2023/09/25 12:08:17;;;;;;;1999.90;999.90;;;;;;;26.33;49.17;102072.09;10399413;28;20054;-72
2023/09/25 12:13:20;;;;;;;1999.90;999.90;;;;;;;25.51;49.82;102081.47;10399386;28;20482;-72
2023/09/25 12:18:23;;;;;;;1999.90;999.90;;;;;;;25.18;52.45;102083.81;10416395;28;20042;-72
2023/09/25 12:23:26;;;;;;;1999.90;999.90;;;;;;;25.02;52.89;102082.69;10417099;28;20081;-72
2023/09/25 12:28:29;;;;;;;1999.90;999.90;;;;;;;24.78;54.20;102096.66;10415958;28;20080;-72
2023/09/25 12:33:31;;;;;;;1999.90;999.90;;;;;;;25.09;54.60;102092.78;10398504;28;20179;-72
2023/09/25 12:38:34;;;;;;;1999.90;999.90;;;;;;;25.01;50.64;102096.22;10398975;28;20045;-72
2023/09/25 12:43:36;;;;;;;1999.90;999.90;;;;;;;23.85;58.13;102101.06;10416208;28;20058;-72
2023/09/25 12:48:39;;;;;;;1999.90;999.90;;;;;;;24.36;55.85;102110.50;10415366;28;20401;-71
2023/09/25 12:53:42;;;;;;;1999.90;999.90;;;;;;;24.44;53.31;102099.06;10399020;28;20128;-72
2023/09/25 12:58:44;;;;;;;1999.90;999.90;;;;;;;23.01;57.76;102097.09;10414950;28;20049;-71
2023/09/25 13:03:47;;;;;;;1999.90;999.90;;;;;;;23.82;56.96;102098.69;10415078;28;20494;-72
2023/09/25 13:08:51;;;;;;;1999.90;999.90;;;;;;;24.62;51.66;102091.13;10415463;28;20049;-71
2023/09/25 13:13:53;;;;;;;1999.90;999.90;;;;;;;23.73;55.93;102090.50;10415330;28;20053;-72
2023/09/25 13:18:56;;;;;;;1999.90;999.90;;;;;;;24.48;53.01;102087.91;10415567;28;20053;-72
2023/09/25 13:23:59;;;;;;;1999.90;999.90;;;;;;;25.18;55.28;102084.69;10415273;28;20049;-72
2023/09/25 13:29:01;;;;;;;1999.90;999.90;;;;;;;24.70;52.64;102088.53;10414442;28;20406;-72
2023/09/25 13:34:04;;;;;;;1999.90;999.90;;;;;;;24.21;51.94;102080.72;10397347;28;20413;-72
2023/09/25 13:39:06;;;;;;;1999.90;999.90;;;;;;;24.32;52.90;102074.31;10414349;28;20391;-72
2023/09/25 13:44:10;;;;;;;1999.90;999.90;;;;;;;24.89;49.89;102074.16;10414935;28;20053;-71
2023/09/25 13:49:13;;;;;;;1999.90;999.90;;;;;;;25.20;49.85;102071.09;10414178;28;20414;-72
2023/09/25 13:54:15;;;;;;;1999.90;999.90;;;;;;;25.57;53.52;102072.78;10414110;28;20124;-72
2023/09/25 13:59:18;;;;;;;1999.90;999.90;;;;;;;25.14;49.97;102072.56;10413890;28;20049;-72
2023/09/25 14:04:20;;;;;;;1999.90;999.90;;;;;;;24.70;53.10;102063.59;10413981;28;20049;-72
2023/09/25 14:09:24;;;;;;;1999.90;999.90;;;;;;;25.36;52.43;102051.69;10414399;28;20041;-72
2023/09/25 14:14:41;;;;;;;1999.90;999.90;;;;;;;25.74;49.29;102053.16;10414337;28;20049;-72
2023/09/25 14:19:43;;;;;;;1999.90;999.90;;;;;;;23.78;56.30;102062.50;10396199;28;20509;-72
2023/09/25 14:24:46;;;;;;;1999.90;999.90;;;;;;;22.39;62.66;102065.19;10419397;28;20513;-72
2023/09/25 14:29:48;;;;;;;1999.90;999.90;;;;;;;23.05;61.07;102063.78;10403017;28;20045;-71
2023/09/25 14:34:50;;;;;;;1999.90;999.90;;;;;;;22.76;64.99;102067.28;10402884;28;20410;-71
2023/09/25 14:39:53;;;;;;;1999.90;999.90;;;;;;;22.30;66.39;102071.31;10420929;28;20052;-71
2023/09/25 14:44:56;;;;;;;1999.90;999.90;;;;;;;22.67;61.68;102060.06;10403806;28;20210;-71
2023/09/25 14:49:59;;;;;;;1999.90;999.90;;;;;;;22.44;61.46;102062.97;10419848;28;20376;-71
2023/09/25 14:55:01;;;;;;;1999.90;999.90;;;;;;;22.59;66.20;102063.44;10419504;28;20053;-71
2023/09/25 15:00:08;;;;;;;1999.90;999.90;;;;;;;22.32;64.80;102066.69;10386580;28;20045;-71
2023/09/25 15:05:11;;;;;;;1999.90;999.90;;;;;;;22.57;66.67;102076.06;10419384;28;20485;-71
2023/09/25 15:10:13;;;;;;;1999.90;999.90;;;;;;;24.88;60.34;102061.78;10419110;28;20384;-72
2023/09/25 15:15:15;;;;;;;1999.90;999.90;;;;;;;26.94;54.88;102069.28;10418961;28;20053;-71
2023/09/25 15:20:18;;;;;;;1999.90;999.90;;;;;;;26.54;51.14;102081.56;10419476;28;20081;-71
2023/09/25 15:25:20;;;;;;;1999.90;999.90;;;;;;;29.38;46.55;102072.41;10401727;28;20124;-72
2023/09/25 15:30:22;;;;;;;1999.90;999.90;;;;;;;27.66;50.53;102082.09;10418931;28;20045;-72
2023/09/25 15:35:25;;;;;;;1999.90;999.90;;;;;;;25.03;59.54;102092.41;10400662;28;20050;-71
2023/09/25 15:40:27;;;;;;;1999.90;999.90;;;;;;;23.36;62.55;102079.72;10384228;28;20504;-71
2023/09/25 15:45:33;;;;;;;1999.90;999.90;;;;;;;24.52;61.23;102075.06;10417810;28;20409;-71
2023/09/25 15:50:36;;;;;;;1999.90;999.90;;;;;;;23.33;64.97;102075.50;10400717;28;20115;-71
2023/09/25 15:55:38;;;;;;;1999.90;999.90;;;;;;;20.97;76.19;102079.72;10417871;28;20063;-71
2023/09/25 16:00:41;;;;;;;1999.90;999.90;;;;;;;21.28;78.05;102079.03;10384330;28;20096;-71
2023/09/25 16:05:44;;;;;;;1999.90;999.90;;;;;;;19.61;89.67;102085.91;10400344;28;20053;-71
2023/09/25 16:10:49;;;;;;;1999.90;999.90;;;;;;;18.82;100.00;102085.50;10417422;28;20045;-71
2023/09/25 16:15:52;;;;;;;1999.90;999.90;;;;;;;18.83;100.00;102081.91;10417285;28;20050;-71
2023/09/25 16:21:03;;;;;;;1999.90;999.90;;;;;;;18.57;100.00;102092.53;10398949;28;20056;-71
2023/09/25 16:26:06;;;;;;;1999.90;999.90;;;;;;;18.30;100.00;102097.97;10416300;28;20410;-70
2023/09/25 16:31:08;;;;;;;1999.90;999.90;;;;;;;18.16;100.00;102110.38;10416042;28;20053;-70
2023/09/25 16:36:13;;;;;;;1999.90;999.90;;;;;;;18.12;100.00;102114.22;10399537;28;20050;-70
2023/09/25 16:41:15;;;;;;;1999.90;999.90;;;;;;;17.81;100.00;102113.59;10398319;28;20046;-70
2023/09/25 16:46:18;;;;;;;1999.90;999.90;;;;;;;17.64;100.00;102116.53;10415380;28;20049;-70
2023/09/25 16:51:20;;;;;;;1999.90;999.90;;;;;;;17.44;100.00;102115.22;10398612;28;20124;-69
2023/09/25 16:56:23;;;;;;;1999.90;999.90;;;;;;;17.42;100.00;102120.59;10415507;28;20080;-69
2023/09/25 17:01:25;;;;;;;1999.90;999.90;;;;;;;17.30;100.00;102118.75;10415191;28;20051;-69
2023/09/25 17:06:28;;;;;;;1999.90;999.90;;;;;;;17.11;100.00;102115.59;10415946;28;20060;-69
2023/09/25 17:11:33;;;;;;;1999.90;999.90;;;;;;;16.83;100.00;102122.63;10415412;28;20405;-69
2023/09/25 17:16:35;;;;;;;1999.90;999.90;;;;;;;16.59;100.00;102123.19;10414798;28;20485;-69
2023/09/25 17:21:38;;;;;;;1999.90;999.90;;;;;;;16.52;100.00;102130.66;10415409;28;20042;-69
2023/09/25 17:26:40;;;;;;;1999.90;999.90;;;;;;;16.25;100.00;102137.63;10415334;28;20136;-69
2023/09/25 17:31:43;;;;;;;1999.90;999.90;;;;;;;16.20;100.00;102132.59;10415142;28;20049;-69
2023/09/25 17:36:45;;;;;;;1999.90;999.90;;;;;;;15.99;100.00;102140.03;10414482;28;20454;-69
2023/09/25 17:41:48;;;;;;;1999.90;999.90;;;;;;;15.84;100.00;102139.13;10415055;28;20049;-69
2023/09/25 17:46:50;;;;;;;1999.90;999.90;;;;;;;15.78;100.00;102140.34;10397062;28;20132;-69
2023/09/25 17:51:53;;;;;;;1999.90;999.90;;;;;;;15.66;100.00;102141.00;10414245;28;20487;-69
2023/09/25 17:56:55;;;;;;;1999.90;999.90;;;;;;;15.56;100.00;102148.59;10416085;28;20103;-70
2023/09/25 18:01:58;;;;;;;1999.90;999.90;;;;;;;15.43;100.00;102155.50;10422507;28;20076;-69
2023/09/25 18:07:00;;;;;;;1999.90;999.90;;;;;;;15.34;100.00;102158.69;10422362;28;20057;-69
2023/09/25 18:12:03;;;;;;;1999.90;999.90;;;;;;;15.20;100.00;102177.91;10421361;28;20076;-69
2023/09/25 18:17:05;;;;;;;1999.90;999.90;;;;;;;15.22;100.00;102184.81;10404385;28;20052;-69
2023/09/25 18:22:08;;;;;;;1999.90;999.90;;;;;;;15.26;100.00;102196.03;10421784;28;20056;-69
2023/09/25 18:27:10;;;;;;;1999.90;999.90;;;;;;;14.88;100.00;102198.97;10420901;28;20055;-69
2023/09/25 18:32:13;;;;;;;1999.90;999.90;;;;;;;14.94;100.00;102176.69;10403105;28;20045;-69
2023/09/25 18:37:15;;;;;;;1999.90;999.90;;;;;;;15.04;100.00;102175.25;10420491;28;20388;-69
2023/09/25 18:42:18;;;;;;;1999.90;999.90;;;;;;;14.86;100.00;102177.09;10420988;28;20045;-69
2023/09/25 18:47:20;;;;;;;1999.90;999.90;;;;;;;14.76;100.00;102184.66;10420770;28;20055;-69
2023/09/25 18:52:22;;;;;;;1999.90;999.90;;;;;;;14.58;100.00;102177.69;10419887;28;20053;-69
2023/09/25 18:57:25;;;;;;;1999.90;999.90;;;;;;;14.65;100.00;102182.56;10402708;28;20061;-69
2023/09/25 19:02:27;;;;;;;1999.90;999.90;;;;;;;14.48;100.00;102186.06;10420183;28;20060;-70
2023/09/25 19:07:31;;;;;;;1999.90;999.90;;;;;;;14.42;100.00;102180.25;10418813;28;20513;-70
2023/09/25 19:12:33;;;;;;;1999.90;999.90;;;;;;;14.30;100.00;102182.56;10402407;28;20124;-70
2023/09/25 19:17:35;;;;;;;1999.90;999.90;;;;;;;14.35;100.00;102173.59;10419712;28;20053;-70
2023/09/25 19:22:38;;;;;;;1999.90;999.90;;;;;;;14.21;100.00;102182.22;10419419;28;20107;-70
2023/09/25 19:27:45;;;;;;;1999.90;999.90;;;;;;;14.28;100.00;102183.59;10401112;28;20049;-70
2023/09/25 19:32:48;;;;;;;1999.90;999.90;;;;;;;14.07;100.00;102178.50;10402075;28;20557;-70
2023/09/25 19:37:50;;;;;;;1999.90;999.90;;;;;;;14.11;100.00;102181.81;10418207;28;20057;-70
2023/09/25 19:42:52;;;;;;;1999.90;999.90;;;;;;;14.01;100.00;102183.22;10418639;28;20053;-70
2023/09/25 19:47:55;;;;;;;1999.90;999.90;;;;;;;13.90;100.00;102181.09;10400362;28;20556;-70
2023/09/25 19:52:57;;;;;;;1999.90;999.90;;;;;;;13.97;100.00;102176.38;10400521;28;20054;-70
2023/09/25 19:57:59;;;;;;;1999.90;999.90;;;;;;;13.89;100.00;102172.38;10400512;28;20064;-70
2023/09/25 20:03:05;;;;;;;1999.90;999.90;;;;;;;13.96;100.00;102180.81;10417838;28;20049;-71
2023/09/25 20:08:07;;;;;;;1999.90;999.90;;;;;;;13.82;100.00;102178.00;10417655;28;20129;-70
2023/09/25 20:13:10;;;;;;;1999.90;999.90;;;;;;;13.57;100.00;102193.22;10424131;22;20049;-77
2023/09/25 20:18:12;;;;;;;1999.90;999.90;;;;;;;13.73;100.00;102195.97;10400300;28;20049;-77
2023/09/25 20:23:14;;;;;;;1999.90;999.90;;;;;;;13.75;100.00;102188.84;10416955;28;20153;-78
2023/09/25 20:28:17;;;;;;;1999.90;999.90;;;;;;;13.57;100.00;102206.34;10416338;28;20136;-78
2023/09/25 20:33:19;;;;;;;1999.90;999.90;;;;;;;13.48;100.00;102206.81;10398587;28;20486;-78
2023/09/25 20:38:23;;;;;;;1999.90;999.90;;;;;;;13.45;100.00;102206.94;10399484;28;20052;-77
2023/09/25 20:43:25;;;;;;;1999.90;999.90;;;;;;;13.45;100.00;102209.59;10398970;28;20124;-77
2023/09/25 20:48:28;;;;;;;1999.90;999.90;;;;;;;13.50;100.00;102201.44;10398530;28;20565;-77
2023/09/25 20:53:30;;;;;;;1999.90;999.90;;;;;;;13.56;100.00;102194.13;10415393;28;20387;-77
2023/09/25 20:58:32;;;;;;;1999.90;999.90;;;;;;;13.46;100.00;102192.00;10397821;28;20052;-77
2023/09/25 21:03:35;;;;;;;1999.90;999.90;;;;;;;13.44;100.00;102191.25;10415843;28;20045;-77
2023/09/25 21:08:37;;;;;;;1999.90;999.90;;;;;;;13.47;100.00;102186.69;10415747;28;20132;-78
2023/09/25 21:13:40;;;;;;;1999.90;999.90;;;;;;;13.44;100.00;102180.72;10414926;28;20141;-78
2023/09/25 21:18:42;;;;;;;1999.90;999.90;;;;;;;13.51;100.00;102180.31;10381136;28;20406;-77
2023/09/25 21:23:44;;;;;;;1999.90;999.90;;;;;;;13.40;100.00;102179.13;10415411;28;20049;-77
2023/09/25 21:28:47;;;;;;;1999.90;999.90;;;;;;;13.41;100.00;102178.22;10415264;28;20046;-77
2023/09/25 21:33:51;;;;;;;1999.90;999.90;;;;;;;13.33;100.00;102171.56;10402078;28;20173;-77
2023/09/25 21:38:54;;;;;;;1999.90;999.90;;;;;;;13.30;100.00;102174.28;10422808;28;20046;-77
2023/09/25 21:43:56;;;;;;;1999.90;999.90;;;;;;;13.15;100.00;102172.38;10423663;28;20424;-77
2023/09/25 21:48:58;;;;;;;1999.90;999.90;;;;;;;13.20;100.00;102167.75;10423103;28;20157;-77